Time;durP1;ratioP1;P1;durP2;ratioP2;P2;SDS_P1;SDS_P2;PMS_P1;PMS_P2;Temp;Humidity;BMP_temperature;BMP_pressure;BME280_temperature;BME280_humidity;BME280_pressure;Samples;Min_cycle;Max_cycle;Signal;HPM_P1;HPM_P2
2022/01/25 00:28:38;;;;;;;98.45;34.05;;;;;;;5.47;100.00;100805.72;4924632;29;20047;-80
2022/01/25 00:31:13;;;;;;;101.65;33.40;;;;;;;5.62;100.00;100823.72;4925129;29;20059;-81
2022/01/25 00:33:42;;;;;;;94.57;32.03;;;;;;;5.59;100.00;100814.34;4926233;29;20023;-79
2022/01/25 00:36:15;;;;;;;90.45;31.23;;;;;;;5.50;100.00;100810.72;4932283;29;20032;-80
2022/01/25 00:38:41;;;;;;;94.90;32.15;;;;;;;5.54;100.00;100812.13;4929571;29;20043;-79
2022/01/25 00:41:07;;;;;;;87.65;31.48;;;;;;;5.45;100.00;100802.41;4915353;29;20112;-79
2022/01/25 00:43:32;;;;;;;95.75;31.52;;;;;;;5.50;100.00;100799.44;4947060;29;20499;-80
2022/01/25 00:46:04;;;;;;;93.80;29.33;;;;;;;5.40;100.00;100787.16;4943213;29;20046;-80
2022/01/25 00:48:43;;;;;;;96.18;29.80;;;;;;;5.38;100.00;100796.81;4943806;29;20028;-80
2022/01/25 00:53:58;;;;;;;77.57;27.48;;;;;;;5.39;100.00;100808.09;4945111;29;20122;-81
2022/01/25 00:56:33;;;;;;;76.45;26.38;;;;;;;5.43;100.00;100809.50;4915002;29;20035;-81
2022/01/25 00:59:02;;;;;;;73.75;24.30;;;;;;;5.46;100.00;100805.84;4942626;29;20032;-81
2022/01/25 01:01:28;;;;;;;60.70;23.23;;;;;;;5.42;100.00;100805.25;4930807;29;20107;-80
2022/01/25 01:03:54;;;;;;;68.82;24.02;;;;;;;5.40;100.00;100804.53;4926836;29;20055;-81
2022/01/25 01:06:21;;;;;;;65.32;24.02;;;;;;;5.30;100.00;100809.59;4950240;29;20034;-80
2022/01/25 01:08:46;;;;;;;68.38;25.30;;;;;;;5.28;100.00;100801.91;4923679;29;20035;-80
2022/01/25 01:11:18;;;;;;;68.75;24.63;;;;;;;5.19;100.00;100807.81;4949149;29;20062;-81
2022/01/25 01:17:20;;;;;;;69.75;26.17;;;;;;;5.19;100.00;100802.59;4945527;29;20036;-80
2022/01/25 01:44:26;;;;;;;75.43;27.20;;;;;;;5.22;100.00;100793.75;4873926;29;20041;-80
2022/01/25 01:47:22;;;;;;;66.28;22.20;;;;;;;5.22;100.00;100801.56;4913738;29;20036;-80
2022/01/25 01:49:44;;;;;;;69.63;24.05;;;;;;;5.33;100.00;100798.16;4945314;29;20035;-80
2022/01/25 01:52:12;;;;;;;63.58;22.73;;;;;;;5.32;100.00;100797.28;4928083;29;20043;-80
2022/01/25 01:54:38;;;;;;;58.17;21.95;;;;;;;5.33;100.00;100800.75;4944830;29;20114;-79
2022/01/25 01:57:06;;;;;;;57.60;21.85;;;;;;;5.23;100.00;100796.22;4922290;29;20040;-80
2022/01/25 01:59:33;;;;;;;54.70;21.05;;;;;;;5.08;100.00;100779.16;4930245;29;20032;-81
2022/01/25 02:01:59;;;;;;;51.80;20.63;;;;;;;5.15;100.00;100795.97;4909364;29;20023;-81
2022/01/25 02:04:25;;;;;;;51.83;19.35;;;;;;;5.21;100.00;100792.91;4910790;29;20096;-81
2022/01/25 02:06:50;;;;;;;55.92;21.23;;;;;;;5.31;100.00;100780.03;4925855;29;20098;-81
2022/01/25 02:09:17;;;;;;;50.38;19.17;;;;;;;5.08;100.00;100779.16;4940392;29;20031;-80
2022/01/25 02:11:43;;;;;;;57.20;21.20;;;;;;;5.28;100.00;100775.06;4932862;29;20104;-80
2022/01/25 02:14:12;;;;;;;51.67;20.13;;;;;;;5.29;100.00;100766.28;4915100;29;20031;-81
2022/01/25 02:16:57;;;;;;;50.88;18.75;;;;;;;5.36;100.00;100771.88;4923233;29;20027;-81
2022/01/25 02:22:30;;;;;;;50.70;19.48;;;;;;;5.40;100.00;100773.28;4940908;29;20106;-80
2022/01/25 02:24:55;;;;;;;48.28;19.13;;;;;;;5.35;100.00;100775.41;4920529;29;20422;-81
2022/01/25 02:27:21;;;;;;;50.28;19.60;;;;;;;5.35;100.00;100775.41;4927636;29;20125;-81
2022/01/25 02:29:47;;;;;;;48.78;18.88;;;;;;;5.35;100.00;100770.22;4946829;29;20082;-80
2022/01/25 02:32:13;;;;;;;55.92;19.67;;;;;;;5.42;100.00;100776.59;4948897;29;20035;-81
2022/01/25 02:34:39;;;;;;;55.20;20.45;;;;;;;5.43;100.00;100784.31;4922775;29;20059;-81
2022/01/25 02:37:07;;;;;;;54.30;20.55;;;;;;;5.42;100.00;100776.59;4909718;29;20131;-81
2022/01/25 02:39:36;;;;;;;50.33;19.33;;;;;;;5.38;100.00;100769.97;4925579;29;20046;-81
2022/01/25 02:42:01;;;;;;;51.42;20.42;;;;;;;5.37;100.00;100763.09;4927619;29;21385;-80
2022/01/25 02:44:29;;;;;;;59.03;20.08;;;;;;;5.38;100.00;100768.19;4932170;29;20111;-80
2022/01/25 02:49:33;;;;;;;51.42;19.80;;;;;;;5.48;100.00;100780.50;4943697;29;20470;-81
2022/01/25 02:52:02;;;;;;;53.03;20.40;;;;;;;5.50;100.00;100782.06;4906571;29;20127;-81
2022/01/25 02:54:28;;;;;;;51.28;20.10;;;;;;;5.42;100.00;100767.03;4947341;29;20038;-81
2022/01/25 02:56:54;;;;;;;51.47;20.00;;;;;;;5.39;100.00;100769.84;4928707;29;20489;-81
2022/01/25 02:59:20;;;;;;;52.83;19.70;;;;;;;5.45;100.00;100773.75;4931253;29;20031;-80
2022/01/25 03:01:48;;;;;;;55.33;19.98;;;;;;;5.50;100.00;100776.00;4914125;29;20023;-81
2022/01/25 03:04:19;;;;;;;52.60;21.02;;;;;;;5.48;100.00;100773.50;4944194;29;20127;-81
2022/01/25 03:06:44;;;;;;;50.45;20.23;;;;;;;5.45;100.00;100768.53;4925130;29;20031;-81
2022/01/25 03:09:11;;;;;;;51.38;20.35;;;;;;;5.07;100.00;100773.13;4946154;29;20058;-82
2022/01/25 03:11:37;;;;;;;51.10;20.08;;;;;;;4.96;100.00;100766.13;4927734;29;20402;-81
2022/01/25 03:14:07;;;;;;;46.65;18.52;;;;;;;4.97;100.00;100762.59;4930378;29;20033;-81
2022/01/25 03:16:44;;;;;;;54.78;20.70;;;;;;;5.06;100.00;100768.88;4943474;29;20035;-81
2022/01/25 03:21:59;;;;;;;54.42;21.73;;;;;;;4.97;100.00;100761.75;4949503;29;20035;-82
2022/01/25 03:24:25;;;;;;;58.75;21.83;;;;;;;4.82;100.00;100759.34;4934439;29;20115;-82
2022/01/25 03:26:51;;;;;;;51.10;22.00;;;;;;;4.75;100.00;100741.72;4949627;29;20169;-81
2022/01/25 03:29:17;;;;;;;56.25;20.80;;;;;;;4.80;100.00;100752.59;4930421;29;20122;-82
2022/01/25 03:31:43;;;;;;;62.70;22.60;;;;;;;4.73;100.00;100760.03;4914827;29;20043;-81
2022/01/25 03:34:08;;;;;;;58.70;23.17;;;;;;;4.70;100.00;100749.84;4929377;29;20027;-81
2022/01/25 03:36:34;;;;;;;50.85;20.55;;;;;;;4.70;100.00;100747.25;4926107;29;20042;-81
2022/01/25 03:39:01;;;;;;;55.85;24.25;;;;;;;4.70;100.00;100745.47;4924408;29;20388;-81
2022/01/25 03:41:27;;;;;;;57.85;22.25;;;;;;;4.51;100.00;100727.81;4949456;29;20445;-80
2022/01/25 03:43:55;;;;;;;61.78;21.90;;;;;;;4.75;100.00;100746.91;4929997;29;20046;-80
2022/01/25 03:51:40;;;;;;;47.88;20.30;;;;;;;4.88;100.00;100742.44;4949660;29;20035;-81
2022/01/25 03:54:05;;;;;;;60.10;21.83;;;;;;;4.91;100.00;100739.59;4913458;29;20038;-81
2022/01/25 03:56:32;;;;;;;60.05;21.05;;;;;;;4.82;100.00;100742.91;4952238;29;20568;-81
2022/01/25 03:58:58;;;;;;;66.82;23.67;;;;;;;4.80;100.00;100739.59;4946394;29;20083;-81
2022/01/25 04:01:23;;;;;;;52.78;20.35;;;;;;;4.76;100.00;100722.56;4942202;29;20557;-81
2022/01/25 04:04:00;;;;;;;57.42;21.02;;;;;;;4.84;100.00;100734.06;4932359;29;20027;-81
2022/01/25 04:06:30;;;;;;;57.03;20.52;;;;;;;4.76;100.00;100732.97;4943091;29;20032;-80
2022/01/25 04:08:57;;;;;;;60.83;22.70;;;;;;;4.72;100.00;100728.00;4946076;29;20107;-80
2022/01/25 04:11:22;;;;;;;61.55;22.27;;;;;;;4.74;100.00;100745.25;4931869;29;20052;-80
2022/01/25 04:13:51;;;;;;;51.28;20.73;;;;;;;4.54;100.00;100731.97;4948516;29;20031;-80
2022/01/25 04:16:23;;;;;;;51.22;19.48;;;;;;;4.45;100.00;100730.88;4950123;29;20032;-81
2022/01/25 04:26:54;;;;;;;55.95;20.77;;;;;;;4.32;100.00;100743.09;4930675;29;20040;-80
2022/01/25 04:29:23;;;;;;;56.65;21.30;;;;;;;4.32;100.00;100741.31;4912146;29;20043;-80
2022/01/25 04:31:49;;;;;;;62.88;22.10;;;;;;;4.19;100.00;100730.16;4929709;29;20032;-88
2022/01/25 04:50:50;;;;;;;73.22;25.45;;;;;;;4.35;100.00;100735.91;4943473;29;20478;-89
2022/01/25 04:53:20;;;;;;;74.70;26.55;;;;;;;4.47;100.00;100728.13;4929582;29;20031;-89
2022/01/25 04:56:28;;;;;;;75.63;26.45;;;;;;;4.58;100.00;100722.97;4942576;29;20118;-90
2022/01/25 04:58:47;;;;;;;73.22;26.35;;;;;;;4.53;100.00;100722.50;4946588;29;20433;-89
2022/01/25 05:01:13;;;;;;;65.05;25.63;;;;;;;4.58;100.00;100718.59;4952486;29;20070;-90
2022/01/25 05:06:20;;;;;;;68.72;25.95;;;;;;;4.72;100.00;100724.56;4946548;29;20061;-89
2022/01/25 05:08:51;;;;;;;73.03;26.55;;;;;;;4.80;100.00;100718.78;4925957;29;20126;-88
2022/01/25 05:14:12;;;;;;;70.85;25.92;;;;;;;4.78;100.00;100726.69;4946227;29;20103;-88
2022/01/25 05:16:48;;;;;;;66.07;23.33;;;;;;;4.78;100.00;100720.66;4946302;29;20031;-89
2022/01/25 05:24:24;;;;;;;65.70;25.80;;;;;;;4.84;100.00;100722.81;4941636;29;20046;-88
2022/01/25 05:26:50;;;;;;;61.90;23.88;;;;;;;4.87;100.00;100714.75;4929921;29;20078;-88
2022/01/25 05:29:16;;;;;;;66.72;25.85;;;;;;;4.92;100.00;100722.22;4938054;29;20386;-88
2022/01/25 05:31:42;;;;;;;62.05;23.60;;;;;;;4.83;100.00;100714.19;4945927;29;20031;-90
2022/01/25 05:34:08;;;;;;;71.95;25.70;;;;;;;4.74;100.00;100714.03;4918918;29;20374;-90
2022/01/25 05:36:38;;;;;;;68.13;26.05;;;;;;;4.65;100.00;100720.75;4924970;29;20056;-89
2022/01/25 05:39:20;;;;;;;64.47;24.52;;;;;;;4.53;100.00;100715.50;4940417;29;20394;-89
2022/01/25 05:41:54;;;;;;;67.55;23.80;;;;;;;4.22;100.00;100709.94;4924961;29;20019;-89
2022/01/25 05:49:26;;;;;;;60.70;24.15;;;;;;;4.21;100.00;100712.69;4946218;29;20031;-88
2022/01/25 05:51:51;;;;;;;65.72;24.33;;;;;;;4.24;100.00;100717.66;4945655;29;20042;-89
2022/01/25 05:54:17;;;;;;;67.07;24.67;;;;;;;4.27;100.00;100718.25;4932862;29;20023;-89
2022/01/25 05:56:43;;;;;;;71.25;25.38;;;;;;;4.20;100.00;100718.81;4920317;29;20038;-89
2022/01/25 05:59:08;;;;;;;62.63;25.15;;;;;;;4.19;100.00;100714.56;4953523;29;20038;-88
2022/01/25 06:01:35;;;;;;;57.92;23.15;;;;;;;4.28;100.00;100716.47;4930500;29;20118;-88
2022/01/25 06:04:02;;;;;;;63.15;22.85;;;;;;;4.32;100.00;100730.09;4954283;29;20047;-89
2022/01/25 06:06:29;;;;;;;68.18;24.25;;;;;;;4.27;100.00;100726.06;4946547;29;20039;-89
2022/01/25 06:08:56;;;;;;;67.50;24.30;;;;;;;4.20;100.00;100737.03;4945790;29;20048;-90
2022/01/25 06:11:23;;;;;;;65.50;23.17;;;;;;;4.00;100.00;100711.50;4935513;29;20139;-89
2022/01/25 06:13:49;;;;;;;57.72;21.73;;;;;;;3.66;100.00;100721.72;4911688;29;20028;-89
2022/01/25 06:16:14;;;;;;;60.03;20.70;;;;;;;3.50;100.00;100724.53;4893550;29;20028;-89
2022/01/25 06:18:40;;;;;;;61.67;22.50;;;;;;;3.48;100.00;100731.59;4929034;29;20078;-88
2022/01/25 06:21:06;;;;;;;68.80;24.50;;;;;;;3.44;100.00;100722.38;4922366;29;20039;-87
2022/01/25 06:23:31;;;;;;;67.88;23.70;;;;;;;3.52;100.00;100714.88;4895824;29;20027;-89
2022/01/25 06:25:57;;;;;;;67.93;23.77;;;;;;;3.60;100.00;100734.31;4900355;29;20038;-88
2022/01/25 06:28:22;;;;;;;64.90;24.52;;;;;;;3.63;100.00;100724.50;4930968;29;20035;-89
2022/01/25 06:30:48;;;;;;;60.88;22.13;;;;;;;3.64;100.00;100725.34;4935638;29;20106;-90
2022/01/25 06:33:14;;;;;;;70.60;23.73;;;;;;;3.60;100.00;100722.13;4934217;29;20070;-89
2022/01/25 06:35:42;;;;;;;69.63;24.98;;;;;;;3.71;100.00;100727.41;4914675;29;20036;-90
2022/01/25 06:38:07;;;;;;;70.25;25.58;;;;;;;3.64;100.00;100714.97;4907637;29;20040;-88
2022/01/25 06:40:33;;;;;;;78.38;26.80;;;;;;;3.43;100.00;100718.13;4893081;29;20391;-89
2022/01/25 06:42:59;;;;;;;84.32;26.83;;;;;;;3.48;100.00;100726.41;4929166;29;20092;-88
2022/01/25 06:45:25;;;;;;;80.75;26.65;;;;;;;3.50;100.00;100729.72;4926514;29;20024;-87
2022/01/25 06:47:51;;;;;;;76.00;25.63;;;;;;;3.52;100.00;100738.25;4908748;29;20032;-87
2022/01/25 06:50:20;;;;;;;79.95;26.55;;;;;;;3.51;100.00;100731.38;4906593;29;20541;-89
2022/01/25 06:52:47;;;;;;;84.30;27.65;;;;;;;3.21;100.00;100737.75;4931468;29;20114;-90
2022/01/25 06:55:15;;;;;;;79.20;27.00;;;;;;;3.48;100.00;100742.00;4903566;29;20394;-89
2022/01/25 06:57:41;;;;;;;82.80;26.60;;;;;;;3.54;100.00;100738.16;4918407;29;20048;-88
2022/01/25 07:00:14;;;;;;;88.07;29.60;;;;;;;3.53;100.00;100741.69;4926741;29;20034;-88
2022/01/25 07:02:39;;;;;;;93.03;28.93;;;;;;;3.61;100.00;100741.16;4880129;29;20422;-90
2022/01/25 07:05:06;;;;;;;82.00;27.88;;;;;;;3.53;100.00;100733.88;4910364;29;20032;-88
2022/01/25 07:07:32;;;;;;;91.25;29.38;;;;;;;3.47;100.00;100718.75;4913590;29;20107;-88
2022/01/25 07:09:57;;;;;;;86.25;28.25;;;;;;;3.63;100.00;100739.28;4930485;29;20114;-88
2022/01/25 07:12:24;;;;;;;100.78;32.63;;;;;;;3.80;100.00;100735.47;4945183;29;20517;-90
2022/01/25 07:14:50;;;;;;;85.35;30.08;;;;;;;3.66;100.00;100745.09;4914737;29;20478;-88
2022/01/25 07:17:16;;;;;;;99.55;32.72;;;;;;;3.69;100.00;100741.44;4909020;29;20039;-89
2022/01/25 07:19:42;;;;;;;91.45;32.53;;;;;;;3.71;100.00;100737.81;4932269;29;20038;-88
2022/01/25 07:22:07;;;;;;;87.20;30.08;;;;;;;3.77;100.00;100735.69;4913797;29;20027;-87
2022/01/25 07:24:33;;;;;;;93.32;30.33;;;;;;;3.73;100.00;100729.88;4949148;29;20032;-89
2022/01/25 07:26:59;;;;;;;101.50;32.88;;;;;;;3.81;100.00;100737.13;4940382;29;20031;-89
2022/01/25 07:29:24;;;;;;;107.47;35.55;;;;;;;3.77;100.00;100733.94;4948309;29;20032;-89
2022/01/25 07:31:50;;;;;;;105.93;33.40;;;;;;;3.83;100.00;100743.06;4943832;29;20032;-89
2022/01/25 07:34:16;;;;;;;112.05;36.03;;;;;;;3.78;100.00;100734.75;4925828;29;20035;-87
2022/01/25 07:36:42;;;;;;;113.47;37.97;;;;;;;3.67;100.00;100736.38;4925157;29;20034;-87
2022/01/25 07:39:09;;;;;;;113.88;38.88;;;;;;;3.75;100.00;100733.22;4943283;29;20030;-86
2022/01/25 07:41:37;;;;;;;119.95;40.33;;;;;;;3.74;100.00;100747.16;4928633;29;20042;-87
2022/01/25 07:44:03;;;;;;;124.00;40.20;;;;;;;3.57;100.00;100733.56;4914322;29;20426;-87
2022/01/25 07:46:29;;;;;;;127.20;42.65;;;;;;;3.60;100.00;100723.91;4937761;29;20039;-91
2022/01/25 07:48:56;;;;;;;131.65;42.45;;;;;;;3.70;100.00;100736.16;4931388;29;20032;-90
2022/01/25 07:51:22;;;;;;;135.15;44.53;;;;;;;3.55;100.00;100738.06;4923237;29;20083;-88
2022/01/25 07:53:49;;;;;;;126.28;39.63;;;;;;;3.72;100.00;100754.19;4926591;29;20039;-85
2022/01/25 07:56:14;;;;;;;128.45;43.40;;;;;;;3.63;100.00;100739.28;4911438;29;20081;-88
2022/01/25 07:58:40;;;;;;;142.13;43.38;;;;;;;3.66;100.00;100750.28;4931132;29;20032;-90
2022/01/25 08:01:06;;;;;;;138.95;41.97;;;;;;;3.52;100.00;100759.00;4919426;29;20090;-90
2022/01/25 08:03:32;;;;;;;129.93;41.45;;;;;;;3.18;100.00;100752.72;4917287;29;20513;-90
2022/01/25 08:05:57;;;;;;;131.02;41.17;;;;;;;3.35;100.00;100748.97;4921778;29;20035;-92
2022/01/25 08:08:26;;;;;;;135.23;39.60;;;;;;;3.30;100.00;100764.88;4935177;29;20031;-89
2022/01/25 08:10:52;;;;;;;113.68;38.85;;;;;;;3.36;100.00;100754.06;4930569;29;20493;-88
2022/01/25 08:13:17;;;;;;;118.38;39.35;;;;;;;3.52;100.00;100774.59;4912834;29;20059;-88
2022/01/25 08:15:43;;;;;;;116.10;38.85;;;;;;;3.50;100.00;100765.25;4926619;29;20108;-88
2022/01/25 08:18:08;;;;;;;121.68;40.10;;;;;;;3.48;100.00;100773.16;4913082;29;20054;-86
2022/01/25 08:20:34;;;;;;;121.97;36.13;;;;;;;3.40;100.00;100775.44;4913465;29;20050;-84
2022/01/25 08:23:00;;;;;;;112.00;35.40;;;;;;;3.22;100.00;100774.91;4932427;29;20461;-88
2022/01/25 08:25:26;;;;;;;90.20;29.63;;;;;;;3.10;100.00;100784.34;4912413;29;20059;-88
2022/01/25 08:27:55;;;;;;;88.80;29.52;;;;;;;3.21;100.00;100787.06;4945999;29;20464;-88
2022/01/25 08:30:20;;;;;;;98.03;31.63;;;;;;;3.34;100.00;100788.81;4924042;29;20031;-88
2022/01/25 08:32:46;;;;;;;87.93;29.50;;;;;;;3.42;100.00;100778.78;4946892;29;20066;-87
2022/01/25 08:35:12;;;;;;;95.63;30.67;;;;;;;3.60;100.00;100784.44;4949791;29;20478;-86
2022/01/25 08:37:37;;;;;;;89.90;31.60;;;;;;;3.62;100.00;100785.16;4936245;29;20047;-87
2022/01/25 08:40:08;;;;;;;105.57;31.73;;;;;;;3.66;100.00;100786.66;4941501;29;20035;-89
2022/01/25 08:42:36;;;;;;;95.40;30.27;;;;;;;3.69;100.00;100785.59;4953650;29;20058;-89
2022/01/25 08:45:04;;;;;;;90.07;29.63;;;;;;;3.67;100.00;100777.06;4964745;29;20492;-89
2022/01/25 08:47:30;;;;;;;122.13;38.38;;;;;;;3.55;100.00;100760.56;4963623;29;20393;-88
2022/01/25 08:49:56;;;;;;;118.00;36.28;;;;;;;3.62;100.00;100777.38;4946098;29;20046;-87
2022/01/25 08:52:22;;;;;;;112.68;37.08;;;;;;;3.65;100.00;100774.59;4949575;29;20039;-88
2022/01/25 08:54:49;;;;;;;124.68;38.80;;;;;;;3.39;100.00;100778.97;4924630;29;20036;-88
2022/01/25 08:57:15;;;;;;;126.53;40.10;;;;;;;3.43;100.00;100772.63;4914068;29;20032;-89
2022/01/25 08:59:41;;;;;;;123.25;40.55;;;;;;;3.46;100.00;100772.41;4921630;29;20035;-89
2022/01/25 09:02:09;;;;;;;128.80;42.45;;;;;;;3.50;100.00;100771.28;4932810;29;20116;-90
2022/01/25 09:04:35;;;;;;;122.75;42.20;;;;;;;3.72;100.00;100775.81;4914778;29;20039;-90
2022/01/25 09:07:01;;;;;;;133.73;44.42;;;;;;;3.66;100.00;100765.88;4915592;29;20110;-89
2022/01/25 09:09:27;;;;;;;137.43;42.92;;;;;;;3.60;100.00;100761.06;4922134;29;20067;-89
2022/01/25 09:11:53;;;;;;;125.35;42.10;;;;;;;3.61;100.00;100748.94;4914933;29;20051;-88
2022/01/25 09:14:19;;;;;;;127.50;44.00;;;;;;;3.83;100.00;100762.09;4918385;29;20071;-89
2022/01/25 09:16:45;;;;;;;138.32;45.05;;;;;;;3.78;100.00;100751.19;4918256;29;20081;-89
2022/01/25 09:19:12;;;;;;;127.13;43.15;;;;;;;3.88;100.00;100758.31;4916282;29;20398;-89
2022/01/25 09:21:38;;;;;;;137.00;46.53;;;;;;;4.01;100.00;100764.31;4931009;29;20517;-88
2022/01/25 09:24:04;;;;;;;145.30;48.33;;;;;;;4.16;100.00;100764.19;4946965;29;20397;-89
2022/01/25 09:26:30;;;;;;;146.07;47.92;;;;;;;3.84;100.00;100760.31;4932102;29;20437;-90
2022/01/25 09:28:57;;;;;;;136.82;46.55;;;;;;;3.96;100.00;100762.03;4928624;29;20027;-89
2022/01/25 09:31:23;;;;;;;132.38;45.28;;;;;;;3.92;100.00;100764.97;4960222;29;20397;-90
2022/01/25 09:33:49;;;;;;;141.00;49.08;;;;;;;3.96;100.00;100753.44;4938770;29;20019;-88
2022/01/25 09:36:14;;;;;;;133.43;48.45;;;;;;;3.87;100.00;100762.72;4955265;29;20065;-90
2022/01/25 09:38:40;;;;;;;141.38;48.53;;;;;;;3.57;100.00;100767.34;4949579;29;20044;-89
2022/01/25 09:41:05;;;;;;;146.38;49.30;;;;;;;3.36;100.00;100780.00;4959665;29;20078;-89
2022/01/25 09:43:32;;;;;;;151.90;48.60;;;;;;;3.81;100.00;100778.69;4946275;29;20039;-90
2022/01/25 09:45:58;;;;;;;150.35;49.50;;;;;;;4.00;100.00;100773.06;4951243;29;20035;-87
2022/01/25 09:48:23;;;;;;;157.10;49.28;;;;;;;4.01;100.00;100779.91;4929564;29;20022;-88
2022/01/25 09:50:50;;;;;;;140.15;48.95;;;;;;;4.05;100.00;100775.34;4912498;29;20046;-88
2022/01/25 09:53:16;;;;;;;146.38;47.92;;;;;;;4.09;100.00;100782.78;4950641;29;20209;-87
2022/01/25 09:55:44;;;;;;;144.35;50.35;;;;;;;3.83;100.00;100788.06;4938109;29;20444;-86
2022/01/25 09:58:15;;;;;;;141.65;49.80;;;;;;;3.91;100.00;100782.31;4944000;29;20098;-87
2022/01/25 10:00:44;;;;;;;141.82;50.00;;;;;;;3.87;100.00;100778.28;4938505;29;20040;-88
2022/01/25 10:03:17;;;;;;;153.85;50.70;;;;;;;3.95;100.00;100780.34;4920184;29;20043;-84
2022/01/25 10:05:45;;;;;;;;;;;;;;;4.16;100.00;100774.56;4928486;29;20063;-85
2022/01/25 10:08:10;;;;;;;146.00;50.03;;;;;;;4.21;100.00;100775.06;4950134;29;20367;-88
2022/01/25 10:10:39;;;;;;;132.32;47.10;;;;;;;4.22;100.00;100776.72;4937131;29;20051;-83
2022/01/25 10:13:22;;;;;;;133.20;46.70;;;;;;;4.06;100.00;100783.00;4924405;29;20043;-86
2022/01/25 10:15:58;;;;;;;148.00;48.53;;;;;;;4.31;100.00;100775.22;4906486;29;20039;-84
2022/01/25 10:18:39;;;;;;;145.98;46.88;;;;;;;4.22;100.00;100776.72;4908662;29;20122;-86
2022/01/25 10:21:12;;;;;;;150.68;50.03;;;;;;;4.07;100.00;100774.28;4926151;29;20442;-84
2022/01/25 10:23:40;;;;;;;127.53;44.50;;;;;;;3.82;100.00;100781.19;4925946;29;20478;-88
2022/01/25 10:26:06;;;;;;;133.90;47.33;;;;;;;3.80;100.00;100782.22;4923804;29;20494;-87
2022/01/25 10:28:32;;;;;;;127.68;46.30;;;;;;;3.85;100.00;100788.78;4926562;29;20043;-85
2022/01/25 10:31:05;;;;;;;125.40;45.60;;;;;;;3.84;100.00;100781.94;4927331;29;20031;-85
2022/01/25 10:33:38;;;;;;;;;;;;;;;3.73;100.00;100781.81;4924253;29;20538;-84
2022/01/25 10:36:22;;;;;;;117.60;43.08;;;;;;;3.93;100.00;100783.03;4907317;29;19972;-88
2022/01/25 10:38:52;;;;;;;118.15;43.50;;;;;;;4.03;100.00;100774.59;4920891;29;20032;-86
2022/01/25 10:41:20;;;;;;;120.95;44.25;;;;;;;4.12;100.00;100772.16;4923824;29;20386;-86
2022/01/25 10:43:48;;;;;;;121.35;44.65;;;;;;;4.17;100.00;100771.84;4906888;29;20047;-85
2022/01/25 10:46:23;;;;;;;118.55;46.22;;;;;;;4.23;100.00;100776.63;4922421;29;20035;-86
2022/01/25 10:49:11;;;;;;;108.50;43.13;;;;;;;4.34;100.00;100775.84;4908702;29;20386;-86
2022/01/25 10:51:42;;;;;;;115.97;43.72;;;;;;;4.36;100.00;100775.72;4927159;29;20035;-85
2022/01/25 10:54:11;;;;;;;102.45;40.50;;;;;;;4.48;100.00;100768.78;4905160;29;20059;-86
2022/01/25 10:56:41;;;;;;;105.65;41.17;;;;;;;4.60;100.00;100764.47;4927488;29;20050;-85
2022/01/25 10:59:11;;;;;;;105.25;40.05;;;;;;;4.52;100.00;100757.22;4911031;29;20067;-86
2022/01/25 11:01:51;;;;;;;101.70;40.00;;;;;;;4.88;100.00;100768.47;4924256;29;20036;-86
2022/01/25 11:04:19;;;;;;;100.03;39.42;;;;;;;4.84;100.00;100761.84;4925748;29;20024;-85
2022/01/25 11:06:52;;;;;;;108.25;42.08;;;;;;;4.71;100.00;100769.72;4909829;29;20119;-85
2022/01/25 11:09:18;;;;;;;97.45;39.72;;;;;;;4.75;100.00;100767.72;4922462;29;20032;-85
2022/01/25 11:11:50;;;;;;;103.88;40.20;;;;;;;4.49;100.00;100768.69;4940437;29;20059;-85
2022/01/25 11:17:01;;;;;;;99.30;38.10;;;;;;;4.22;100.00;100774.13;4943065;29;20027;-85
2022/01/25 11:19:26;;;;;;;92.80;36.42;;;;;;;4.29;100.00;100780.53;4943563;29;20028;-86
2022/01/25 11:21:53;;;;;;;98.50;39.88;;;;;;;4.24;100.00;100780.03;4946542;29;20066;-85
2022/01/25 11:24:21;;;;;;;97.30;38.42;;;;;;;4.36;100.00;100781.75;4944045;29;20092;-85
2022/01/25 11:26:49;;;;;;;105.47;39.75;;;;;;;4.47;100.00;100780.16;4926491;29;20035;-85
2022/01/25 11:29:16;;;;;;;98.93;40.17;;;;;;;4.52;100.00;100788.44;4934045;29;20031;-86
2022/01/25 11:31:50;;;;;;;90.10;38.42;;;;;;;4.25;100.00;100784.28;4938759;29;20095;-84
2022/01/25 11:34:17;;;;;;;98.10;38.00;;;;;;;3.98;100.00;100773.16;4939465;29;20119;-86
2022/01/25 11:36:54;;;;;;;94.30;34.42;;;;;;;3.92;100.00;100775.34;4942112;29;20082;-85
2022/01/25 11:39:23;;;;;;;86.70;34.28;;;;;;;3.83;100.00;100776.81;4939682;28;20062;-85
2022/01/25 11:41:51;;;;;;;89.47;35.05;;;;;;;3.75;100.00;100772.19;4939899;29;20035;-85
2022/01/25 11:44:26;;;;;;;93.70;34.85;;;;;;;3.69;100.00;100772.59;4941557;29;20048;-87
2022/01/25 11:47:16;;;;;;;94.65;36.88;;;;;;;3.91;100.00;100773.69;4923078;29;20110;-86
2022/01/25 11:50:04;;;;;;;101.05;38.92;;;;;;;3.85;100.00;100770.59;4945016;29;20039;-84
2022/01/25 11:52:31;;;;;;;100.65;37.97;;;;;;;3.88;100.00;100764.38;4939566;29;20063;-84
2022/01/25 11:55:15;;;;;;;100.75;38.67;;;;;;;3.89;100.00;100763.44;4933964;29;20033;-84
2022/01/25 11:57:54;;;;;;;97.22;38.92;;;;;;;4.00;100.00;100757.47;4940774;29;20076;-85
2022/01/25 12:00:22;;;;;;;99.68;39.17;;;;;;;4.18;100.00;100751.91;4944954;29;20485;-85
2022/01/25 12:02:50;;;;;;;98.00;40.58;;;;;;;4.30;100.00;100745.78;4941904;29;20038;-84
2022/01/25 12:05:24;;;;;;;101.70;38.35;;;;;;;4.56;100.00;100753.47;4921052;29;20035;-85
2022/01/25 12:08:05;;;;;;;98.10;38.63;;;;;;;4.72;100.00;100759.22;4948442;29;20063;-85
2022/01/25 12:10:35;;;;;;;90.47;38.42;;;;;;;4.75;100.00;100750.34;4920228;29;20131;-87
2022/01/25 12:13:11;;;;;;;89.32;35.03;;;;;;;4.72;100.00;100743.59;4912577;29;20028;-85
2022/01/25 12:15:37;;;;;;;91.63;35.50;;;;;;;4.57;100.00;100736.94;4904851;29;20099;-86
2022/01/25 12:18:02;;;;;;;93.30;35.33;;;;;;;4.44;100.00;100731.81;4937201;29;20028;-85
2022/01/25 12:20:47;;;;;;;84.38;34.88;;;;;;;4.57;100.00;100744.72;4927273;29;20363;-85
2022/01/25 12:23:22;;;;;;;83.82;33.60;;;;;;;4.59;100.00;100742.84;4927864;29;20047;-86
2022/01/25 12:25:55;;;;;;;80.38;33.38;;;;;;;4.79;100.00;100746.56;4925381;29;20027;-87
2022/01/25 12:28:29;;;;;;;82.60;33.88;;;;;;;4.85;100.00;100745.28;4907144;29;20052;-86
2022/01/25 12:31:00;;;;;;;85.25;33.95;;;;;;;4.69;100.00;100736.00;4947675;29;20039;-85
2022/01/25 12:33:28;;;;;;;77.85;32.08;;;;;;;4.69;100.00;100725.59;4937569;29;20031;-86
2022/01/25 12:36:04;;;;;;;79.57;32.30;;;;;;;4.92;100.00;100728.28;4942501;29;20537;-87
2022/01/25 12:38:29;;;;;;;76.25;31.55;;;;;;;5.05;100.00;100732.53;4930269;29;20032;-86
2022/01/25 12:40:56;;;;;;;77.97;31.77;;;;;;;5.20;100.00;100726.16;4939413;29;20490;-86
2022/01/25 12:43:25;;;;;;;77.75;31.90;;;;;;;5.19;100.00;100731.47;4922241;29;20063;-87
2022/01/25 12:45:55;;;;;;;82.20;33.88;;;;;;;5.18;100.00;100712.44;4939297;29;20035;-84
2022/01/25 12:48:33;;;;;;;82.88;33.92;;;;;;;5.21;100.00;100712.19;4944420;29;20027;-86
2022/01/25 12:51:05;;;;;;;87.93;40.00;;;;;;;5.26;100.00;100704.84;4951974;29;20042;-87
2022/01/25 12:53:33;;;;;;;85.95;36.67;;;;;;;5.28;100.00;100697.75;4940338;29;20032;-86
2022/01/25 12:56:04;;;;;;;79.15;32.17;;;;;;;5.12;100.00;100697.31;4939994;29;20482;-85
2022/01/25 12:58:31;;;;;;;91.53;42.58;;;;;;;5.25;100.00;100687.56;4941811;29;20050;-85
2022/01/25 13:01:02;;;;;;;79.85;35.30;;;;;;;5.38;100.00;100684.03;4920057;29;20068;-84
2022/01/25 13:03:33;;;;;;;82.18;32.95;;;;;;;5.29;100.00;100678.56;4920430;29;20394;-86
2022/01/25 13:06:28;;;;;;;82.97;33.15;;;;;;;5.14;100.00;100679.78;4925744;29;20542;-86
2022/01/25 13:11:49;;;;;;;80.97;34.28;;;;;;;5.39;100.00;100672.66;4926502;29;20044;-87